Time;durP1;ratioP1;P1;durP2;ratioP2;P2;SDS_P1;SDS_P2;PMS_P1;PMS_P2;Temp;Humidity;BMP_temperature;BMP_pressure;BME280_temperature;BME280_humidity;BME280_pressure;Samples;Min_cycle;Max_cycle;Signal;HPM_P1;HPM_P2
2022/01/09 00:02:17;;;;;;;1.00;1.00;;;4.50;1.00;;;;;;5051664;28;20546;-78
2022/01/09 00:05:05;;;;;;;0.90;0.85;;;4.40;1.00;;;;;;5068601;28;20424;-78
2022/01/09 00:07:36;;;;;;;2.08;1.30;;;4.40;1.00;;;;;;5057596;28;20629;-78
2022/01/09 00:10:07;;;;;;;1.30;1.20;;;4.30;1.00;;;;;;5033580;28;20156;-78
2022/01/09 00:12:35;;;;;;;1.30;1.20;;;4.30;1.00;;;;;;5061606;28;20854;-78
2022/01/09 00:15:02;;;;;;;1.13;1.02;;;4.30;1.00;;;;;;5060623;28;20187;-78
2022/01/09 00:17:29;;;;;;;1.95;1.15;;;4.30;1.00;;;;;;5059190;28;20210;-79
2022/01/09 00:19:59;;;;;;;0.68;0.68;;;4.30;1.00;;;;;;5065915;28;20263;-78
2022/01/09 00:25:23;;;;;;;1.20;1.10;;;4.40;1.00;;;;;;5063759;28;20409;-78
2022/01/09 00:27:53;;;;;;;1.90;1.10;;;4.40;1.00;;;;;;5065820;28;20179;-79
2022/01/09 00:30:23;;;;;;;0.90;0.85;;;4.50;1.00;;;;;;5060783;28;20505;-78
2022/01/09 00:32:51;;;;;;;1.73;1.20;;;4.40;1.00;;;;;;5063718;28;20190;-77
2022/01/09 00:35:40;;;;;;;1.20;1.00;;;4.40;1.00;;;;;;5063878;28;20214;-77
2022/01/09 00:38:06;;;;;;;1.45;1.05;;;4.40;1.00;;;;;;5077722;28;20198;-77
2022/01/09 00:40:32;;;;;;;0.90;0.90;;;4.50;1.00;;;;;;5077581;28;20159;-76
2022/01/09 00:42:59;;;;;;;0.90;0.90;;;4.60;1.00;;;;;;5077962;28;20166;-77
2022/01/09 00:45:25;;;;;;;1.37;0.90;;;4.50;1.00;;;;;;5063692;28;20621;-77
2022/01/09 00:47:53;;;;;;;1.80;1.07;;;4.50;1.00;;;;;;5078196;28;20397;-78
2022/01/09 00:50:23;;;;;;;3.13;1.10;;;4.60;1.00;;;;;;5076707;28;20171;-78
2022/01/09 00:52:53;;;;;;;1.60;1.25;;;4.60;1.00;;;;;;5065663;28;20996;-78
2022/01/09 00:55:41;;;;;;;1.23;1.07;;;4.60;1.00;;;;;;5070000;28;20184;-78
2022/01/09 00:58:11;;;;;;;1.20;1.20;;;4.60;1.00;;;;;;5070561;28;20479;-78
2022/01/09 01:00:41;;;;;;;1.03;1.03;;;4.60;1.00;;;;;;5064336;28;20878;-78
2022/01/09 01:03:17;;;;;;;1.70;0.80;;;4.70;1.00;;;;;;5060206;28;20407;-77
2022/01/09 01:05:43;;;;;;;1.73;0.90;;;4.60;1.00;;;;;;5066508;28;20445;-76
2022/01/09 01:08:11;;;;;;;3.73;1.30;;;4.60;1.00;;;;;;5061539;28;20452;-76
2022/01/09 01:10:47;;;;;;;1.70;0.83;;;4.60;1.00;;;;;;5077173;28;20186;-76
2022/01/09 01:13:17;;;;;;;0.70;0.70;;;4.60;1.00;;;;;;5063367;28;20570;-76
2022/01/09 01:15:59;;;;;;;0.93;0.90;;;4.70;1.00;;;;;;5076265;28;20398;-77
2022/01/09 01:18:25;;;;;;;0.80;0.60;;;4.70;1.00;;;;;;5055311;28;20450;-78
2022/01/09 01:21:00;;;;;;;1.90;0.70;;;4.70;1.00;;;;;;5056751;28;20429;-78
2022/01/09 01:23:41;;;;;;;0.70;0.70;;;4.90;1.00;;;;;;5056575;28;20147;-78
2022/01/09 01:26:23;;;;;;;0.40;0.40;;;4.90;1.00;;;;;;5057015;28;20405;-78
2022/01/09 01:28:53;;;;;;;0.77;0.73;;;4.90;1.00;;;;;;5070356;28;20413;-78
2022/01/09 01:31:23;;;;;;;0.43;0.43;;;5.00;1.00;;;;;;5068956;28;20986;-78
2022/01/09 01:33:53;;;;;;;4.30;0.53;;;5.00;1.00;;;;;;5058058;28;20434;-76
2022/01/09 01:36:23;;;;;;;0.50;0.50;;;5.10;1.00;;;;;;5076671;28;20462;-76
2022/01/09 01:39:16;;;;;;;0.52;0.52;;;5.10;1.00;;;;;;5076678;28;20416;-76
2022/01/09 01:41:53;;;;;;;0.70;0.70;;;5.20;1.00;;;;;;5063567;28;20179;-76
2022/01/09 01:44:23;;;;;;;0.60;0.60;;;5.30;1.00;;;;;;5051640;28;20414;-76
2022/01/09 01:46:49;;;;;;;0.50;0.50;;;5.30;1.00;;;;;;5036421;28;20806;-77
2022/01/09 01:49:17;;;;;;;0.80;0.70;;;5.30;1.00;;;;;;5051902;28;20417;-76
2022/01/09 01:52:22;;;;;;;0.57;0.57;;;5.40;1.00;;;;;;5074994;28;20159;-76
2022/01/09 01:54:53;;;;;;;0.50;0.50;;;5.50;1.00;;;;;;5069453;28;20412;-76
2022/01/09 01:57:19;;;;;;;0.93;0.60;;;5.50;1.00;;;;;;5036137;28;20435;-76
2022/01/09 01:59:47;;;;;;;2.83;1.10;;;5.50;1.00;;;;;;5046771;28;20475;-77
2022/01/09 02:02:29;;;;;;;0.97;0.70;;;5.50;1.00;;;;;;5061112;28;20170;-77
2022/01/09 02:04:55;;;;;;;0.60;0.60;;;5.60;1.00;;;;;;5042631;28;20441;-76
2022/01/09 02:07:21;;;;;;;6.63;1.00;;;5.60;1.00;;;;;;5055376;28;20462;-76
2022/01/09 02:09:53;;;;;;;0.70;0.60;;;5.60;1.00;;;;;;5064028;28;20805;-76
2022/01/09 02:12:23;;;;;;;0.60;0.60;;;5.70;1.00;;;;;;5073864;28;20392;-76
2022/01/09 02:15:42;;;;;;;0.60;0.60;;;5.70;1.00;;;;;;5055709;28;20923;-76
2022/01/09 02:18:18;;;;;;;0.57;0.57;;;5.70;1.00;;;;;;5044061;28;20449;-76
2022/01/09 02:20:45;;;;;;;0.73;0.73;;;5.70;1.00;;;;;;5046937;28;20422;-76
2022/01/09 02:23:18;;;;;;;0.90;0.90;;;5.70;1.00;;;;;;5033872;28;20403;-76
2022/01/09 02:25:46;;;;;;;0.67;0.67;;;5.80;1.00;;;;;;5047473;28;20884;-76
2022/01/09 02:28:14;;;;;;;0.50;0.50;;;5.70;1.00;;;;;;5040863;28;20423;-76
2022/01/09 02:30:42;;;;;;;0.70;0.70;;;5.80;1.00;;;;;;5047033;28;20464;-77
2022/01/09 02:33:17;;;;;;;0.67;0.67;;;5.80;1.00;;;;;;5046780;28;20441;-76
2022/01/09 02:35:51;;;;;;;0.93;0.87;;;5.80;1.00;;;;;;5041402;28;20414;-78
2022/01/09 02:38:29;;;;;;;1.50;0.90;;;5.90;1.00;;;;;;5050959;28;20507;-78
2022/01/09 02:40:55;;;;;;;0.77;0.77;;;5.90;1.00;;;;;;5043671;28;20440;-78
2022/01/09 02:43:29;;;;;;;1.20;1.03;;;5.90;1.00;;;;;;5053114;28;20394;-78
2022/01/09 02:46:32;;;;;;;0.90;0.90;;;5.90;1.00;;;;;;5052183;28;20437;-79
2022/01/09 02:49:11;;;;;;;2.10;1.00;;;5.90;1.00;;;;;;5031972;28;20409;-77
2022/01/09 02:51:53;;;;;;;0.70;0.70;;;5.90;1.00;;;;;;5035842;28;20502;-77
2022/01/09 02:57:03;;;;;;;1.00;0.83;;;5.90;1.00;;;;;;5049258;28;20447;-76
2022/01/09 02:59:35;;;;;;;1.47;1.00;;;5.90;1.00;;;;;;5068379;28;20421;-76
2022/01/09 03:02:05;;;;;;;0.80;0.73;;;5.90;1.00;;;;;;5039465;28;20846;-76
2022/01/09 03:04:36;;;;;;;0.80;0.80;;;5.90;1.00;;;;;;5044402;28;20421;-76
2022/01/09 03:07:01;;;;;;;0.70;0.70;;;5.90;1.00;;;;;;5057855;28;20504;-76
2022/01/09 03:09:35;;;;;;;1.87;0.83;;;6.00;1.00;;;;;;5074765;28;20477;-76
2022/01/09 03:12:23;;;;;;;2.50;1.00;;;6.00;1.00;;;;;;5057032;28;20510;-77
2022/01/09 03:14:53;;;;;;;3.43;0.80;;;5.90;1.00;;;;;;5055056;28;20700;-76
2022/01/09 03:17:29;;;;;;;0.80;0.80;;;5.90;1.00;;;;;;5050677;28;20988;-76
2022/01/09 03:19:55;;;;;;;1.77;1.00;;;5.80;1.00;;;;;;5074866;28;20389;-77
2022/01/09 03:22:23;;;;;;;0.67;0.67;;;5.80;1.00;;;;;;5064841;28;20928;-79
2022/01/09 03:24:59;;;;;;;0.83;0.83;;;5.80;1.00;;;;;;5053029;28;20535;-78
2022/01/09 03:27:37;;;;;;;0.80;0.80;;;5.80;1.00;;;;;;5034346;28;20900;-78
2022/01/09 03:30:05;;;;;;;1.00;0.80;;;5.80;1.00;;;;;;5046428;28;20417;-77
2022/01/09 03:32:37;;;;;;;1.37;0.80;;;5.80;1.00;;;;;;5061247;28;20421;-78
2022/01/09 03:35:08;;;;;;;0.50;0.50;;;5.80;1.00;;;;;;5034548;28;20449;-77
2022/01/09 03:37:35;;;;;;;2.13;0.80;;;5.80;1.00;;;;;;5036035;28;20529;-77
2022/01/09 03:40:02;;;;;;;3.03;0.70;;;5.80;1.00;;;;;;5089732;28;20417;-77
2022/01/09 03:42:35;;;;;;;0.70;0.60;;;5.80;1.00;;;;;;5060302;28;20418;-77
2022/01/09 03:45:07;;;;;;;1.10;0.70;;;5.80;1.00;;;;;;5065159;28;20422;-78
2022/01/09 03:47:35;;;;;;;0.50;0.50;;;5.80;1.00;;;;;;5067381;28;20425;-78
2022/01/09 03:50:13;;;;;;;0.40;0.40;;;5.80;1.00;;;;;;5059184;28;20471;-78
2022/01/09 03:52:41;;;;;;;0.47;0.47;;;5.80;1.00;;;;;;5067255;28;20501;-78
2022/01/09 03:55:12;;;;;;;0.50;0.50;;;5.80;1.00;;;;;;5053605;28;20448;-77
2022/01/09 03:57:59;;;;;;;1.33;0.50;;;5.80;1.00;;;;;;5073116;28;20465;-78
2022/01/09 04:00:25;;;;;;;0.40;0.40;;;5.70;1.00;;;;;;5058560;28;20402;-78
2022/01/09 04:02:54;;;;;;;0.40;0.30;;;5.70;1.00;;;;;;5062920;28;20424;-78
2022/01/09 04:05:23;;;;;;;0.40;0.40;;;5.60;1.00;;;;;;5060621;28;20498;-76
2022/01/09 04:07:59;;;;;;;0.30;0.30;;;5.60;1.00;;;;;;5063036;28;20816;-76
2022/01/09 04:10:50;;;;;;;0.30;0.30;;;5.60;1.00;;;;;;5054068;28;20405;-76
2022/01/09 04:13:35;;;;;;;0.40;0.40;;;5.50;1.00;;;;;;5066089;28;20928;-76
2022/01/09 04:16:01;;;;;;;0.37;0.37;;;5.50;1.00;;;;;;5062955;28;20425;-76
2022/01/09 04:18:28;;;;;;;0.40;0.40;;;5.50;1.00;;;;;;5057638;28;20449;-76
2022/01/09 04:20:55;;;;;;;0.30;0.30;;;5.40;1.00;;;;;;5074472;28;20513;-78
2022/01/09 04:23:23;;;;;;;0.40;0.40;;;5.50;1.00;;;;;;5055662;28;20912;-78
2022/01/09 04:25:53;;;;;;;0.40;0.30;;;5.40;1.00;;;;;;5060437;28;20426;-78
2022/01/09 04:28:41;;;;;;;0.40;0.40;;;5.40;1.00;;;;;;5066778;28;20456;-77
2022/01/09 04:31:06;;;;;;;0.40;0.40;;;5.40;1.00;;;;;;5066754;28;20405;-77
2022/01/09 04:33:35;;;;;;;0.30;0.30;;;5.40;1.00;;;;;;5062002;28;20520;-77
2022/01/09 04:36:11;;;;;;;0.33;0.33;;;5.40;1.00;;;;;;5060079;28;20619;-77
2022/01/09 04:38:41;;;;;;;8.13;0.50;;;5.30;1.00;;;;;;5073705;28;20841;-77
2022/01/09 04:41:11;;;;;;;0.30;0.30;;;5.30;1.00;;;;;;5056627;28;20536;-77
2022/01/09 04:43:37;;;;;;;0.80;0.33;;;5.30;1.00;;;;;;5066994;28;20409;-76
2022/01/09 04:46:02;;;;;;;0.30;0.30;;;5.20;1.00;;;;;;5053333;28;20943;-76
2022/01/09 04:48:55;;;;;;;0.30;0.30;;;5.20;1.00;;;;;;5068805;28;20516;-76
2022/01/09 04:51:23;;;;;;;0.40;0.40;;;5.10;1.00;;;;;;5061095;28;20176;-77
2022/01/09 04:53:53;;;;;;;0.30;0.30;;;5.10;1.00;;;;;;5066514;28;20471;-77
2022/01/09 04:56:23;;;;;;;0.40;0.40;;;5.10;1.00;;;;;;5053804;28;20909;-78
2022/01/09 04:58:59;;;;;;;0.30;0.28;;;5.10;1.00;;;;;;5056487;28;20486;-77
2022/01/09 05:01:47;;;;;;;0.30;0.30;;;5.10;1.00;;;;;;5073401;28;20167;-77
2022/01/09 05:04:23;;;;;;;0.30;0.30;;;5.10;1.00;;;;;;5061705;28;20418;-76
2022/01/09 05:06:53;;;;;;;0.30;0.30;;;5.10;1.00;;;;;;5066107;28;20793;-77
2022/01/09 05:09:29;;;;;;;0.30;0.30;;;5.00;1.00;;;;;;5066148;28;20804;-76
2022/01/09 05:11:59;;;;;;;0.30;0.30;;;5.00;1.00;;;;;;5049280;28;20425;-76
2022/01/09 05:14:29;;;;;;;0.30;0.30;;;5.00;1.00;;;;;;5059733;28;20446;-76
2022/01/09 05:17:11;;;;;;;8.23;0.73;;;5.10;1.00;;;;;;5070860;28;20449;-76
2022/01/09 05:19:38;;;;;;;0.30;0.30;;;;;;;;;;5062372;28;20499;-77
2022/01/09 05:22:05;;;;;;;0.30;0.30;;;5.10;1.00;;;;;;5058807;28;20418;-78
2022/01/09 05:24:47;;;;;;;1.00;0.30;;;5.00;1.00;;;;;;5063110;28;20965;-77
2022/01/09 05:27:13;;;;;;;0.30;0.30;;;5.00;1.00;;;;;;5076386;28;21040;-77
2022/01/09 05:29:41;;;;;;;0.30;0.27;;;5.00;1.00;;;;;;5063021;28;20523;-77
2022/01/09 05:35:29;;;;;;;0.30;0.30;;;5.10;1.00;;;;;;5063214;28;20413;-77
2022/01/09 05:37:59;;;;;;;0.30;0.30;;;5.00;1.00;;;;;;5068686;28;20948;-77
2022/01/09 05:40:35;;;;;;;0.30;0.30;;;5.00;1.00;;;;;;5063129;28;20422;-78
2022/01/09 05:43:05;;;;;;;0.33;0.30;;;5.00;1.00;;;;;;5075122;28;20401;-77
2022/01/09 05:45:47;;;;;;;0.30;0.30;;;5.00;1.00;;;;;;5062483;28;20900;-78
2022/01/09 05:48:17;;;;;;;0.30;0.30;;;4.90;1.00;;;;;;5066600;28;20458;-78
2022/01/09 05:50:47;;;;;;;0.30;0.30;;;4.90;1.00;;;;;;5062055;28;20685;-76
2022/01/09 05:53:13;;;;;;;0.30;0.30;;;4.80;1.00;;;;;;5065684;28;20422;-77
2022/01/09 05:55:41;;;;;;;0.30;0.20;;;4.80;1.00;;;;;;5055794;28;20175;-76
2022/01/09 05:58:11;;;;;;;3.25;0.30;;;4.80;1.00;;;;;;5056015;28;20198;-76
2022/01/09 06:00:37;;;;;;;0.90;0.30;;;4.80;1.00;;;;;;5059551;28;20183;-76
2022/01/09 06:03:05;;;;;;;0.30;0.20;;;4.80;1.00;;;;;;5056221;28;20744;-76
2022/01/09 06:05:31;;;;;;;0.30;0.30;;;4.80;1.00;;;;;;5061663;28;20214;-76
2022/01/09 06:07:57;;;;;;;0.30;0.20;;;4.90;1.00;;;;;;5076018;28;20397;-76
2022/01/09 06:10:35;;;;;;;1.23;0.50;;;4.80;1.00;;;;;;5062415;28;20268;-76
2022/01/09 06:13:01;;;;;;;0.30;0.30;;;4.80;1.00;;;;;;5075924;28;20219;-76
2022/01/09 06:15:29;;;;;;;0.50;0.40;;;4.80;1.00;;;;;;5065610;28;20425;-76
2022/01/09 06:17:55;;;;;;;1.77;0.60;;;4.80;1.00;;;;;;5069727;28;20199;-76
2022/01/09 06:20:23;;;;;;;0.30;0.30;;;4.80;1.00;;;;;;5076283;28;20413;-77
2022/01/09 06:22:53;;;;;;;0.40;0.40;;;4.80;1.00;;;;;;5061426;28;20172;-76
2022/01/09 06:25:23;;;;;;;1.23;0.63;;;4.90;1.00;;;;;;5055358;28;21010;-75
2022/01/09 06:27:49;;;;;;;0.50;0.47;;;4.90;1.00;;;;;;5037673;28;20476;-77
2022/01/09 06:30:29;;;;;;;0.50;0.50;;;4.80;1.00;;;;;;5074629;28;20404;-77
2022/01/09 06:33:17;;;;;;;0.30;0.30;;;4.90;1.00;;;;;;5072091;28;20432;-77
2022/01/09 06:35:44;;;;;;;0.50;0.50;;;4.90;1.00;;;;;;5054242;28;20422;-77
2022/01/09 06:38:11;;;;;;;1.20;0.60;;;5.00;1.00;;;;;;5049096;28;20548;-77
2022/01/09 06:40:37;;;;;;;0.40;0.40;;;5.00;1.00;;;;;;5062163;28;20180;-77
2022/01/09 06:43:05;;;;;;;1.13;0.70;;;5.00;1.00;;;;;;5062848;28;20764;-77
2022/01/09 06:45:31;;;;;;;0.30;0.30;;;5.00;1.00;;;;;;5055174;28;20529;-78
2022/01/09 06:48:05;;;;;;;1.25;0.47;;;5.00;1.00;;;;;;5058544;28;20928;-78
2022/01/09 06:50:41;;;;;;;0.40;0.40;;;5.00;1.00;;;;;;5054843;28;20557;-77
2022/01/09 06:53:11;;;;;;;1.33;0.60;;;5.00;1.00;;;;;;5065072;28;20479;-77
2022/01/09 06:55:43;;;;;;;1.10;0.40;;;5.00;1.00;;;;;;5064314;28;20429;-77
2022/01/09 06:58:11;;;;;;;0.50;0.50;;;5.50;1.00;;;;;;5058448;28;20461;-77
2022/01/09 07:00:37;;;;;;;1.33;0.50;;;5.00;1.00;;;;;;5059515;28;20518;-77
2022/01/09 07:03:03;;;;;;;0.93;0.43;;;5.00;1.00;;;;;;5062947;28;20504;-77
2022/01/09 07:05:29;;;;;;;0.70;0.50;;;4.90;1.00;;;;;;5059523;28;20234;-77
2022/01/09 07:08:05;;;;;;;0.80;0.40;;;4.90;1.00;;;;;;5062969;28;20267;-77
2022/01/09 07:10:31;;;;;;;0.73;0.57;;;5.00;1.00;;;;;;5070707;28;20549;-77
2022/01/09 07:13:11;;;;;;;0.80;0.70;;;4.90;1.00;;;;;;5054573;28;20858;-78
2022/01/09 07:15:47;;;;;;;1.07;0.70;;;5.00;1.00;;;;;;5054544;28;20406;-76
2022/01/09 07:18:24;;;;;;;1.67;0.77;;;5.00;1.00;;;;;;5067219;28;20921;-76
2022/01/09 07:21:11;;;;;;;1.63;0.90;;;5.10;1.00;;;;;;5065786;28;20425;-76
2022/01/09 07:23:41;;;;;;;0.63;0.63;;;5.00;1.00;;;;;;5058098;28;20504;-77
2022/01/09 07:26:07;;;;;;;0.67;0.60;;;5.00;1.00;;;;;;5071218;28;20512;-76
2022/01/09 07:28:32;;;;;;;0.90;0.80;;;5.10;1.00;;;;;;5060439;28;20866;-77
2022/01/09 07:31:05;;;;;;;5.27;0.80;;;5.10;1.00;;;;;;5054342;28;20203;-77
2022/01/09 07:33:47;;;;;;;1.60;0.87;;;5.20;1.00;;;;;;5054594;28;20183;-77
2022/01/09 07:36:23;;;;;;;1.07;0.50;;;5.20;1.00;;;;;;5054518;28;20938;-77
2022/01/09 07:38:49;;;;;;;0.87;0.87;;;5.20;1.00;;;;;;5054158;28;20406;-77
2022/01/09 07:41:17;;;;;;;13.53;1.10;;;5.30;1.00;;;;;;5059373;28;20566;-77
2022/01/09 07:43:47;;;;;;;3.23;1.00;;;5.30;1.00;;;;;;5072202;28;20508;-77
2022/01/09 07:46:13;;;;;;;0.83;0.70;;;5.30;1.00;;;;;;5047168;28;20440;-78
2022/01/09 07:48:41;;;;;;;1.13;1.03;;;5.40;1.00;;;;;;5060731;28;20445;-77
2022/01/09 07:51:11;;;;;;;2.33;0.90;;;5.40;1.00;;;;;;5060720;28;20460;-77
2022/01/09 07:53:41;;;;;;;2.90;1.10;;;5.40;1.00;;;;;;5064622;28;20452;-77
2022/01/09 07:56:11;;;;;;;3.37;0.93;;;5.50;1.00;;;;;;5053365;28;20430;-78
2022/01/09 07:58:37;;;;;;;3.60;1.10;;;5.50;1.00;;;;;;5067305;28;20898;-76
2022/01/09 08:01:11;;;;;;;3.47;1.03;;;5.60;1.00;;;;;;5061979;28;20527;-76
2022/01/09 08:03:37;;;;;;;4.73;1.30;;;5.60;1.00;;;;;;5056829;28;20696;-78
2022/01/09 08:06:17;;;;;;;1.00;0.73;;;5.70;1.00;;;;;;5053501;28;20437;-78
2022/01/09 08:09:11;;;;;;;14.87;1.40;;;5.70;1.00;;;;;;5072046;28;20470;-78
2022/01/09 08:11:41;;;;;;;7.50;1.73;;;5.70;1.00;;;;;;5059980;28;20920;-80
2022/01/09 08:14:08;;;;;;;1.60;1.33;;;5.70;1.00;;;;;;5079923;28;20434;-78
2022/01/09 08:16:53;;;;;;;7.40;1.27;;;5.70;1.00;;;;;;5069302;28;20427;-78
2022/01/09 08:19:23;;;;;;;4.70;1.20;;;5.70;1.00;;;;;;5060512;28;20920;-78
2022/01/09 08:22:17;;;;;;;2.60;1.00;;;5.70;1.00;;;;;;5063112;28;20425;-77
2022/01/09 08:25:03;;;;;;;1.23;0.87;;;5.60;1.00;;;;;;5060188;28;20424;-78
2022/01/09 08:27:30;;;;;;;2.50;0.93;;;5.60;1.00;;;;;;5059575;28;20429;-78
2022/01/09 08:33:25;;;;;;;2.47;0.93;;;5.60;1.00;;;;;;5047163;28;20455;-78
2022/01/09 08:35:51;;;;;;;2.53;0.83;;;5.60;1.00;;;;;;5054679;28;20480;-78
2022/01/09 08:38:20;;;;;;;0.70;0.70;;;5.60;1.00;;;;;;5073928;28;20494;-77
2022/01/09 08:41:17;;;;;;;2.07;0.80;;;5.60;1.00;;;;;;5058160;28;20846;-77
2022/01/09 08:43:43;;;;;;;8.37;1.50;;;5.50;1.00;;;;;;5066509;28;20416;-77
2022/01/09 08:46:11;;;;;;;1.83;1.33;;;5.60;1.00;;;;;;5060917;28;20432;-77
2022/01/09 08:48:37;;;;;;;1.87;0.60;;;5.60;1.00;;;;;;5060028;28;20896;-77
2022/01/09 08:51:21;;;;;;;7.80;0.80;;;5.60;1.00;;;;;;5065267;28;20428;-77
2022/01/09 08:54:05;;;;;;;3.87;1.40;;;5.60;1.00;;;;;;5054898;28;20168;-78
2022/01/09 08:56:41;;;;;;;4.57;1.47;;;5.70;1.00;;;;;;5068905;28;20424;-78
2022/01/09 08:59:25;;;;;;;18.77;1.27;;;5.70;1.00;;;;;;5052216;28;20419;-78
2022/01/09 09:01:52;;;;;;;1.13;1.07;;;5.70;1.00;;;;;;5058853;28;20967;-73
2022/01/09 09:04:18;;;;;;;0.90;0.70;;;5.80;1.00;;;;;;5056822;28;20428;-79
2022/01/09 09:07:05;;;;;;;8.13;0.97;;;5.80;1.00;;;;;;5060088;28;20429;-79
2022/01/09 09:09:30;;;;;;;5.23;1.47;;;5.80;1.00;;;;;;5057116;28;20425;-77
2022/01/09 09:11:59;;;;;;;1.53;1.00;;;5.90;1.00;;;;;;5061819;28;20777;-79
2022/01/09 09:14:48;;;;;;;3.33;0.80;;;5.80;1.00;;;;;;5062124;28;20534;-78
2022/01/09 09:17:23;;;;;;;0.77;0.77;;;5.80;1.00;;;;;;5062781;28;20454;-78
2022/01/09 09:20:06;;;;;;;3.70;0.60;;;5.80;1.00;;;;;;5072783;28;20427;-78
2022/01/09 09:22:36;;;;;;;1.43;1.27;;;5.80;1.00;;;;;;5076010;28;20481;-79
2022/01/09 09:25:41;;;;;;;0.63;0.60;;;5.80;1.00;;;;;;5063712;28;20466;-79
2022/01/09 09:28:36;;;;;;;0.90;0.60;;;5.80;1.00;;;;;;5059007;28;20397;-78
2022/01/09 09:31:03;;;;;;;7.20;1.07;;;5.80;1.00;;;;;;5063529;28;21159;-79
2022/01/09 09:33:29;;;;;;;0.70;0.70;;;5.80;1.00;;;;;;5069783;28;20432;-79
2022/01/09 09:36:05;;;;;;;2.23;1.00;;;5.80;1.00;;;;;;5069613;28;21082;-77
2022/01/09 09:38:32;;;;;;;2.20;1.30;;;5.80;1.00;;;;;;5063544;28;20488;-78
2022/01/09 09:40:58;;;;;;;1.63;1.23;;;5.80;1.00;;;;;;5061383;28;20480;-78
2022/01/09 09:43:41;;;;;;;7.33;1.50;;;5.90;1.00;;;;;;5063244;28;20417;-78
2022/01/09 09:46:07;;;;;;;5.00;1.30;;;5.90;1.00;;;;;;5062365;28;20421;-78
2022/01/09 09:48:35;;;;;;;4.07;1.00;;;5.90;1.00;;;;;;5076251;28;20436;-79
2022/01/09 09:51:18;;;;;;;1.43;0.70;;;6.00;1.00;;;;;;5063240;28;20183;-78
2022/01/09 09:53:43;;;;;;;0.90;0.80;;;6.10;1.00;;;;;;5067116;28;20963;-78
2022/01/09 09:56:29;;;;;;;1.40;1.30;;;6.10;1.00;;;;;;5051358;28;20508;-78
2022/01/09 09:59:47;;;;;;;4.57;1.33;;;6.10;1.00;;;;;;5067274;28;20183;-79
2022/01/09 10:02:19;;;;;;;2.30;0.90;;;6.10;1.00;;;;;;5062317;28;20946;-78
2022/01/09 10:05:06;;;;;;;1.80;0.60;;;6.20;1.00;;;;;;5064311;28;20772;-78
2022/01/09 10:07:35;;;;;;;5.30;1.17;;;6.20;1.00;;;;;;5069403;28;20414;-77
2022/01/09 10:10:09;;;;;;;6.87;1.10;;;6.20;1.00;;;;;;5069510;28;20420;-76
2022/01/09 10:12:36;;;;;;;5.07;1.50;;;6.30;1.00;;;;;;5044124;28;20547;-76
2022/01/09 10:18:53;;;;;;;3.53;1.20;;;6.50;1.00;;;;;;5060371;28;20453;-77
2022/01/09 10:21:23;;;;;;;2.20;0.80;;;6.50;1.00;;;;;;5062605;28;20418;-77
2022/01/09 10:24:10;;;;;;;2.20;1.00;;;6.50;1.00;;;;;;5049787;28;20935;-77
2022/01/09 10:26:49;;;;;;;0.80;0.80;;;6.60;1.00;;;;;;5062217;28;20416;-77
2022/01/09 10:29:15;;;;;;;0.70;0.70;;;6.60;1.00;;;;;;5079038;28;20426;-77
2022/01/09 10:31:51;;;;;;;0.80;0.80;;;6.60;1.00;;;;;;5073726;28;20405;-77
2022/01/09 10:34:17;;;;;;;0.60;0.60;;;6.60;1.00;;;;;;5075204;28;20228;-80
2022/01/09 10:36:49;;;;;;;1.07;0.80;;;6.70;1.00;;;;;;5074876;28;20409;-82
2022/01/09 10:39:36;;;;;;;0.50;0.50;;;6.70;1.00;;;;;;5068643;28;20627;-78
2022/01/09 10:42:18;;;;;;;4.93;1.10;;;6.80;1.00;;;;;;5071486;28;20420;-81
2022/01/09 10:44:44;;;;;;;6.50;3.20;;;6.80;1.00;;;;;;5058707;28;20409;-77
2022/01/09 10:47:14;;;;;;;1.93;1.00;;;6.60;1.00;;;;;;5072897;28;20433;-76
2022/01/09 10:49:43;;;;;;;2.70;0.93;;;6.60;1.00;;;;;;5070522;28;20429;-77
2022/01/09 10:52:26;;;;;;;0.80;0.80;;;6.70;1.00;;;;;;5063377;28;20421;-76
2022/01/09 10:54:55;;;;;;;2.60;1.10;;;6.70;1.00;;;;;;5073503;28;20449;-78
2022/01/09 10:57:27;;;;;;;0.70;0.70;;;6.70;1.00;;;;;;5053538;28;20960;-78
2022/01/09 11:00:19;;;;;;;0.60;0.60;;;6.70;1.00;;;;;;5055654;28;20422;-77
2022/01/09 11:02:46;;;;;;;16.37;1.20;;;6.70;1.00;;;;;;5047368;28;20438;-78
2022/01/09 11:05:24;;;;;;;11.63;1.27;;;6.70;1.00;;;;;;5061390;28;20409;-77
2022/01/09 11:07:51;;;;;;;0.90;0.80;;;6.80;1.00;;;;;;5061341;28;20422;-77
2022/01/09 11:10:18;;;;;;;1.17;0.73;;;6.80;1.00;;;;;;5066346;28;20476;-78
2022/01/09 11:12:58;;;;;;;1.13;0.80;;;6.90;1.00;;;;;;5068123;28;20453;-77
2022/01/09 11:15:28;;;;;;;3.37;0.90;;;6.90;1.00;;;;;;5055998;28;20483;-78
2022/01/09 11:17:58;;;;;;;1.43;1.03;;;6.90;1.00;;;;;;5051609;28;20548;-83
2022/01/09 11:20:24;;;;;;;1.27;0.93;;;7.00;1.00;;;;;;5053599;28;20927;-78
2022/01/09 11:22:53;;;;;;;1.37;0.80;;;6.80;1.00;;;;;;5054231;28;20414;-80
2022/01/09 11:25:38;;;;;;;0.73;0.60;;;6.80;1.00;;;;;;5055095;28;20410;-76
2022/01/09 11:28:21;;;;;;;3.73;1.00;;;6.90;1.00;;;;;;5054293;28;21046;-77
2022/01/09 11:31:04;;;;;;;0.73;0.73;;;7.00;1.00;;;;;;5054103;28;20407;-78
2022/01/09 11:33:48;;;;;;;3.53;0.87;;;7.00;1.00;;;;;;5053811;28;20429;-75
2022/01/09 11:36:48;;;;;;;0.90;0.90;;;7.00;1.00;;;;;;5064287;28;20440;-75
2022/01/09 11:39:39;;;;;;;4.67;1.30;;;7.20;1.00;;;;;;5035222;28;20396;-80
2022/01/09 11:42:23;;;;;;;4.50;0.97;;;7.30;1.00;;;;;;5049879;28;20426;-78
2022/01/09 11:44:55;;;;;;;1.57;1.00;;;7.30;1.00;;;;;;5067499;28;20942;-76
2022/01/09 11:47:22;;;;;;;4.77;0.83;;;7.30;1.00;;;;;;5053971;28;20488;-75
2022/01/09 11:49:53;;;;;;;2.63;1.10;;;7.40;1.00;;;;;;5067176;28;20858;-76
2022/01/09 11:52:29;;;;;;;1.67;0.97;;;7.40;1.00;;;;;;5059472;28;20446;-76
2022/01/09 11:54:59;;;;;;;1.80;1.20;;;7.60;1.00;;;;;;5049358;28;20434;-75
2022/01/09 11:57:43;;;;;;;3.60;0.90;;;7.70;1.00;;;;;;5048103;28;20515;-76
2022/01/09 12:00:33;;;;;;;5.50;0.90;;;7.60;1.00;;;;;;5046499;28;20421;-76
2022/01/09 12:03:00;;;;;;;2.40;0.90;;;7.60;1.00;;;;;;5072504;28;20417;-76
2022/01/09 12:05:27;;;;;;;2.30;0.80;;;7.60;1.00;;;;;;5063803;28;20430;-76
2022/01/09 12:07:53;;;;;;;2.20;0.90;;;9.00;1.00;;;;;;5069806;28;20684;-76
2022/01/09 12:10:39;;;;;;;3.70;0.97;;;7.70;1.00;;;;;;5078792;28;20441;-76
2022/01/09 12:13:25;;;;;;;1.53;0.80;;;7.70;1.00;;;;;;5060782;28;20455;-77
2022/01/09 12:15:51;;;;;;;1.10;0.90;;;7.50;1.00;;;;;;5065265;28;21421;-76
2022/01/09 12:18:41;;;;;;;4.10;1.30;;;7.40;1.00;;;;;;5043514;28;20485;-76
2022/01/09 12:21:08;;;;;;;0.80;0.70;;;7.50;1.00;;;;;;5057422;28;20171;-76
2022/01/09 12:23:34;;;;;;;5.10;1.03;;;7.50;1.00;;;;;;5052744;28;20417;-76
2022/01/09 12:25:59;;;;;;;1.90;0.93;;;7.50;1.00;;;;;;5064756;28;20421;-76
2022/01/09 12:28:35;;;;;;;5.30;1.27;;;7.50;1.00;;;;;;5066128;28;20187;-76
2022/01/09 12:31:01;;;;;;;7.93;1.00;;;8.40;1.00;;;;;;5063999;28;20654;-76
2022/01/09 12:33:28;;;;;;;0.53;0.50;;;;;;;;;;5063832;28;20449;-76
2022/01/09 12:35:58;;;;;;;2.40;1.17;;;7.40;1.00;;;;;;5067683;28;20509;-76
2022/01/09 12:38:26;;;;;;;1.80;0.80;;;7.30;1.00;;;;;;5069664;28;20479;-76
2022/01/09 12:40:56;;;;;;;3.23;0.90;;;7.40;1.00;;;;;;5060547;28;20422;-76
2022/01/09 12:43:23;;;;;;;1.87;0.93;;;7.30;1.00;;;;;;5070303;28;20408;-76
2022/01/09 12:45:50;;;;;;;5.63;1.10;;;7.40;1.00;;;;;;5068437;28;20472;-79
2022/01/09 12:48:28;;;;;;;4.20;1.10;;;7.40;1.00;;;;;;5082583;28;20492;-78
2022/01/09 12:50:56;;;;;;;5.60;1.07;;;7.50;1.00;;;;;;5076240;28;20419;-76
2022/01/09 12:53:27;;;;;;;3.80;0.77;;;7.60;1.00;;;;;;5062914;28;20986;-77
2022/01/09 12:56:12;;;;;;;7.50;1.07;;;7.60;1.00;;;;;;5062856;28;20520;-76
2022/01/09 12:58:50;;;;;;;1.73;1.00;;;7.50;1.00;;;;;;5062112;28;20457;-76
2022/01/09 13:01:20;;;;;;;5.97;1.40;;;7.40;1.00;;;;;;5063883;28;20490;-80
2022/01/09 13:03:49;;;;;;;3.23;0.90;;;7.40;1.00;;;;;;5068001;28;20453;-77
2022/01/09 13:06:20;;;;;;;1.77;0.70;;;7.70;1.00;;;;;;5057547;28;20413;-76
2022/01/09 13:08:49;;;;;;;5.13;0.90;;;7.30;1.00;;;;;;5067350;28;20791;-76
2022/01/09 13:11:24;;;;;;;1.10;1.00;;;7.30;1.00;;;;;;5059208;28;20421;-75
2022/01/09 13:13:52;;;;;;;1.30;1.20;;;7.30;1.00;;;;;;5065999;28;20412;-74
2022/01/09 13:16:29;;;;;;;8.97;1.37;;;7.30;1.00;;;;;;5058258;28;20429;-73
2022/01/09 13:19:00;;;;;;;2.53;1.00;;;7.30;1.00;;;;;;5069254;28;20955;-74
2022/01/09 13:21:28;;;;;;;3.60;0.90;;;7.30;1.00;;;;;;5075594;28;20424;-74
2022/01/09 13:24:07;;;;;;;1.70;0.80;;;7.30;1.00;;;;;;5075896;28;20405;-80
2022/01/09 13:27:02;;;;;;;3.43;0.80;;;7.20;1.00;;;;;;5063910;28;20987;-74
2022/01/09 13:29:33;;;;;;;2.80;0.90;;;7.20;1.00;;;;;;5071892;28;20427;-76
2022/01/09 13:32:04;;;;;;;1.00;0.97;;;7.20;1.00;;;;;;5063295;28;21005;-75
2022/01/09 13:34:38;;;;;;;2.33;1.00;;;7.20;1.00;;;;;;5065333;28;20950;-75
2022/01/09 13:37:08;;;;;;;1.63;0.90;;;7.10;1.00;;;;;;5056555;28;20448;-76
2022/01/09 13:39:48;;;;;;;1.77;0.80;;;7.10;1.00;;;;;;5062121;28;20412;-74
2022/01/09 13:42:33;;;;;;;2.37;1.00;;;7.10;1.00;;;;;;5074869;28;20450;-75
2022/01/09 13:45:15;;;;;;;5.30;1.07;;;7.10;1.00;;;;;;5053839;28;20622;-75
2022/01/09 13:47:42;;;;;;;1.80;0.80;;;7.10;1.00;;;;;;5062217;28;20433;-76
2022/01/09 13:50:21;;;;;;;1.47;0.77;;;7.00;1.00;;;;;;5069252;28;20442;-78
2022/01/09 13:53:13;;;;;;;0.70;0.70;;;7.10;1.00;;;;;;5037021;28;20414;-76
2022/01/09 13:56:29;;;;;;;4.57;0.73;;;7.10;1.00;;;;;;5056546;28;20425;-79
2022/01/09 13:59:05;;;;;;;1.83;0.70;;;7.00;1.00;;;;;;5069825;28;20456;-76